WetterOnline ( https://www.wetteronline.at )

Wetter aktuell Traunstein

Aktuelles Wetter: Chieming (553m)

6-stündlich | Neueste Meldungen
Ortszeit Temperatur Wetter
Di, 17.09. 14:00 20.4° C fast wolkenlos
Di, 17.09. 8:00 14.1° C wolkig
Di, 17.09. 2:00 17.2° C bedeckt
Mo, 16.09. 20:00 21.1° C wolkig
Mo, 16.09. 14:00 24.3° C wolkig
Mo, 16.09. 8:00 15.4° C wolkenlos
Mo, 16.09. 2:00 15.5° C fast wolkenlos
So, 15.09. 20:00 19.4° C wolkenlos
Ortszeit Temperatur Wetter
Di, 17.09. 16:00 20.1° C wolkig
Di, 17.09. 15:50 20.1° C wolkig
Di, 17.09. 15:40 19.8° C wolkig
Di, 17.09. 15:30 20.5° C wolkig
Di, 17.09. 15:20 20.5° C wolkig
Di, 17.09. 15:10 20.4° C leicht bewölkt
Di, 17.09. 15:00 20.3° C wolkenlos
Di, 17.09. 14:30 19.9° C fast wolkenlos
Di, 17.09. 14:00 20.4° C fast wolkenlos
Di, 17.09. 13:30 20.0° C leicht bewölkt
Di, 17.09. 13:00 19.4° C leicht bewölkt
Ortszeit Relative Feuchte Sichtweite
Di, 17.09. 14:00 66% 11 km
Di, 17.09. 8:00 95% 14 km
Di, 17.09. 2:00 90% 17 km
Mo, 16.09. 20:00 80% 17 km
Mo, 16.09. 14:00 60% 23 km
Mo, 16.09. 8:00 87% 18 km
Mo, 16.09. 2:00 91% 18 km
So, 15.09. 20:00 83% 20 km
Ortszeit Relative Feuchte Sichtweite
Di, 17.09. 16:00 65% 12 km
Di, 17.09. 15:50 65% -
Di, 17.09. 15:40 64% -
Di, 17.09. 15:30 65% 11 km
Di, 17.09. 15:20 65% -
Di, 17.09. 15:10 63% -
Di, 17.09. 15:00 63% 10 km
Di, 17.09. 14:30 64% 10 km
Di, 17.09. 14:00 66% 11 km
Di, 17.09. 13:30 63% 17 km
Di, 17.09. 13:00 63% 6 km
Ortszeit Niederschlagsmenge Niederschlagsart
Di, 17.09. 14:00 0.1 l/m2 in 6 Std. Regen
Di, 17.09. 8:00 3 l/m2 in 12 Std. -
Di, 17.09. 2:00 3 l/m2 in 6 Std. Regen
Mo, 16.09. 20:00 0.1 l/m2 in 12 Std. Regen
Mo, 16.09. 14:00 0.0 l/m2 in 6 Std. -
Mo, 16.09. 8:00 0.0 l/m2 in 12 Std. -
Mo, 16.09. 2:00 0.0 l/m2 in 6 Std. -
So, 15.09. 20:00 0.0 l/m2 in 12 Std. -
Ortszeit Niederschlagsmenge Niederschlagsart
Di, 17.09. 16:00 0.0 l/m2 in 1 Std. -
Di, 17.09. 15:50 keine Meldung -
Di, 17.09. 15:40 keine Meldung -
Di, 17.09. 15:30 0.0 l/m2 in 1 Std. -
Di, 17.09. 15:20 keine Meldung -
Di, 17.09. 15:10 keine Meldung -
Di, 17.09. 15:00 0.0 l/m2 in 1 Std. -
Di, 17.09. 14:30 0.0 l/m2 in 1 Std. -
Di, 17.09. 14:00 0.0 l/m2 in 1 Std. Regen
Di, 17.09. 13:30 0.0 l/m2 in 1 Std. -
Di, 17.09. 13:00 0.0 l/m2 in 1 Std. -
Ortszeit Stärke Spitze Richtung
km/h Bft. km/h Grad Sektor
Di, 17.09. 14:00 11 2 22 290° W
Di, 17.09. 8:00 6 1 7 140° SO
Di, 17.09. 2:00 4 1 25 300° NW
Mo, 16.09. 20:00 4 1 25 60° NO
Mo, 16.09. 14:00 6 1 13 270° W
Mo, 16.09. 8:00 4 1 18 240° SW
Mo, 16.09. 2:00 7 2 14 190° S
So, 15.09. 20:00 4 1 11 160° S
Ortszeit Stärke Spitze Richtung
km/h Bft. km/h Grad Sektor
Di, 17.09. 16:00 17 3 30 310° NW
Di, 17.09. 15:50 17 3 - 310° NW
Di, 17.09. 15:40 20 4 - 310° NW
Di, 17.09. 15:30 14 3 25 300° NW
Di, 17.09. 15:20 14 3 - 300° NW
Di, 17.09. 15:10 14 3 - 300° NW
Di, 17.09. 15:00 13 3 24 300° NW
Di, 17.09. 14:30 15 3 24 300° NW
Di, 17.09. 14:00 11 2 22 290° W
Di, 17.09. 13:30 7 2 15 270° W
Di, 17.09. 13:00 11 2 18 300° NW
Ortszeit Untergrenze Bedeckung Gattung
total tief tief mittel hoch
Di, 17.09. 14:00 1200 m 1/8 1/8 - - -
Di, 17.09. 8:00 2100 m 7/8 4/8 - - -
Di, 17.09. 2:00 1320 m 8/8 8/8 - - -
Mo, 16.09. 20:00 1500 m 8/8 2/8 - - -
Mo, 16.09. 14:00 6000 m 8/8 8/8 - - -
Mo, 16.09. 8:00 - 0/8 0/8 - - -
Mo, 16.09. 2:00 12000 m 2/8 0/8 - - -
So, 15.09. 20:00 - 0/8 0/8 - - -
Ortszeit Bedeckungsgrad in Achtel und Wolkenuntergrenze
Di, 17.09. 16:00 1(870m) 4(1500m) 6(2700m)
Di, 17.09. 15:50 1(870m) 4(1500m) 6(2700m)
Di, 17.09. 15:40 2(1080m) 4(1500m) 6(2700m)
Di, 17.09. 15:30 1(1050m) 6(2700m)
Di, 17.09. 15:20 1(1050m) 6(2700m)
Di, 17.09. 15:10 4(2700m)
Di, 17.09. 15:00 keine Wolken
Di, 17.09. 14:30 1(1290m)
Di, 17.09. 14:00 1(1200m)
Di, 17.09. 13:30 4(3000m)
Di, 17.09. 13:00 1(1500m) 7(3000m)
Ortszeit Luftdruck NN (hPa) Tendenz (hPa in 3 Std.)
Di, 17.09. 14:00 1016 - 0,5
Di, 17.09. 8:00 1018 + 0,6
Di, 17.09. 2:00 1017 - 0,4
Mo, 16.09. 20:00 1016 - 0,3
Mo, 16.09. 14:00 1017 - 1,6
Mo, 16.09. 8:00 1021 - 0,5
Mo, 16.09. 2:00 1022 - 0,1
So, 15.09. 20:00 1021 - 0,7
Ortszeit Luftdruck NN (hPa) Tendenz (hPa in 3 Std.)
Di, 17.09. 16:00 1016 - 0,9
Di, 17.09. 15:50 1016 keine Meldung
Di, 17.09. 15:40 1016 keine Meldung
Di, 17.09. 15:30 1016 - 1,0
Di, 17.09. 15:20 1016 keine Meldung
Di, 17.09. 15:10 1016 keine Meldung
Di, 17.09. 15:00 1016 - 1,0
Di, 17.09. 14:30 1016 - 1,0
Di, 17.09. 14:00 1016 - 0,5
Di, 17.09. 13:30 1017 - 0,1
Di, 17.09. 13:00 1017 + 0,1
Ortszeit Schneehöhe (cm)
Di, 17.09. 14:00 -
Di, 17.09. 8:00 -
Di, 17.09. 2:00 -
Mo, 16.09. 20:00 -
Mo, 16.09. 14:00 -
Mo, 16.09. 8:00 -
Mo, 16.09. 2:00 -
So, 15.09. 20:00 -
Ortszeit Schneehöhe (cm)
Di, 17.09. 16:00 -
Di, 17.09. 15:50 -
Di, 17.09. 15:40 -
Di, 17.09. 15:30 -
Di, 17.09. 15:20 -
Di, 17.09. 15:10 -
Di, 17.09. 15:00 -
Di, 17.09. 14:30 -
Di, 17.09. 14:00 -
Di, 17.09. 13:30 -
Di, 17.09. 13:00 -
Link zu dieser Seite / Seite empfehlen

Das Wetter in ...